Time;durP1;ratioP1;P1;durP2;ratioP2;P2;SDS_P1;SDS_P2;PMS_P1;PMS_P2;Temp;Humidity;BMP_temperature;BMP_pressure;BME280_temperature;BME280_humidity;BME280_pressure;Samples;Min_cycle;Max_cycle;Signal;HPM_P1;HPM_P2
2021/01/10 00:00:56;;;;;;;31.10;14.73;;;3.60;99.90;;;;;;5113492;28;20261;-58
2021/01/10 00:03:21;;;;;;;27.43;12.97;;;3.30;99.90;;;;;;5112031;27;20210;-58
2021/01/10 00:05:47;;;;;;;26.27;11.77;;;3.70;99.90;;;;;;5111298;27;20242;-57
2021/01/10 00:08:12;;;;;;;29.73;12.40;;;3.50;99.90;;;;;;5112002;28;20542;-58
2021/01/10 00:10:38;;;;;;;33.53;15.00;;;3.70;99.90;;;;;;5112585;28;20218;-56
2021/01/10 00:13:04;;;;;;;30.70;14.03;;;3.60;99.90;;;;;;5112792;28;20508;-56
2021/01/10 00:15:31;;;;;;;29.63;14.87;;;3.60;99.90;;;;;;5114153;27;20183;-57
2021/01/10 00:17:57;;;;;;;30.97;13.07;;;3.40;99.90;;;;;;5113255;28;20499;-57
2021/01/10 00:20:23;;;;;;;32.67;14.43;;;3.40;99.90;;;;;;5111865;27;20589;-57
2021/01/10 00:22:53;;;;;;;37.77;17.47;;;3.40;99.90;;;;;;5112341;27;20558;-56
2021/01/10 00:25:19;;;;;;;41.43;15.80;;;3.40;99.90;;;;;;5112397;28;20190;-57
2021/01/10 00:27:44;;;;;;;41.70;16.40;;;3.40;99.90;;;;;;5109171;28;20448;-56
2021/01/10 00:30:13;;;;;;;44.67;16.70;;;3.40;99.90;;;;;;5112985;28;20211;-57
2021/01/10 00:32:39;;;;;;;34.03;14.37;;;3.30;99.90;;;;;;5111235;28;20190;-58
2021/01/10 00:35:06;;;;;;;39.93;15.43;;;3.40;99.90;;;;;;5112687;27;20442;-57
2021/01/10 00:37:32;;;;;;;39.57;16.33;;;3.50;99.90;;;;;;5110793;28;20219;-57
2021/01/10 00:39:57;;;;;;;34.73;14.83;;;3.40;99.90;;;;;;5108301;28;20529;-58
2021/01/10 00:42:23;;;;;;;40.10;16.43;;;3.30;99.90;;;;;;5112322;28;20714;-57
2021/01/10 00:44:49;;;;;;;37.10;15.43;;;3.30;99.90;;;;;;5111157;28;20184;-58
2021/01/10 00:47:17;;;;;;;34.80;15.67;;;3.30;99.90;;;;;;5112843;27;20181;-57
2021/01/10 00:49:44;;;;;;;36.17;15.13;;;3.30;99.90;;;;;;5110900;27;20200;-56
2021/01/10 00:52:10;;;;;;;34.97;15.07;;;3.30;99.90;;;;;;5113123;28;20929;-59
2021/01/10 00:54:36;;;;;;;35.13;14.03;;;3.40;99.90;;;;;;5109857;28;20447;-58
2021/01/10 00:57:01;;;;;;;32.00;16.90;;;3.60;99.90;;;;;;5112460;27;20686;-57
2021/01/10 00:59:27;;;;;;;40.93;14.90;;;3.60;99.90;;;;;;5112704;27;20186;-57
2021/01/10 01:01:53;;;;;;;37.03;16.70;;;3.60;99.90;;;;;;5110791;28;20203;-58
2021/01/10 01:04:19;;;;;;;42.50;16.17;;;3.60;99.90;;;;;;5112070;28;20207;-57
2021/01/10 01:06:45;;;;;;;39.23;16.83;;;3.50;99.90;;;;;;5112545;28;20180;-57
2021/01/10 01:09:12;;;;;;;36.10;13.47;;;3.50;99.90;;;;;;5112224;28;20457;-56
2021/01/10 01:11:39;;;;;;;35.33;15.20;;;3.50;99.90;;;;;;5111065;28;20540;-58
2021/01/10 01:14:07;;;;;;;32.67;15.37;;;3.40;99.90;;;;;;5110799;27;20464;-57
2021/01/10 01:16:35;;;;;;;31.37;13.70;;;3.50;99.90;;;;;;5111488;28;20442;-59
2021/01/10 01:19:01;;;;;;;34.40;16.53;;;3.50;99.90;;;;;;5111397;27;20449;-58
2021/01/10 01:21:27;;;;;;;33.20;14.53;;;3.50;99.90;;;;;;5106241;28;20467;-57
2021/01/10 01:23:52;;;;;;;31.10;14.13;;;3.50;99.90;;;;;;5109400;28;20212;-58
2021/01/10 01:26:19;;;;;;;29.33;12.63;;;3.50;99.90;;;;;;5111876;28;20219;-57
2021/01/10 01:28:46;;;;;;;29.37;14.47;;;3.50;99.90;;;;;;5109291;27;20520;-58
2021/01/10 01:31:12;;;;;;;36.60;15.70;;;3.30;99.90;;;;;;5111910;28;20466;-56
2021/01/10 01:33:38;;;;;;;39.73;15.57;;;3.30;99.90;;;;;;5109826;27;20454;-58
2021/01/10 01:36:04;;;;;;;40.50;16.70;;;3.30;99.90;;;;;;5108704;28;20949;-57
2021/01/10 01:38:30;;;;;;;39.80;14.73;;;3.40;99.90;;;;;;5108273;27;20187;-57
2021/01/10 01:41:00;;;;;;;29.70;13.97;;;3.40;99.90;;;;;;5111604;28;20527;-57
2021/01/10 01:43:26;;;;;;;34.47;14.10;;;3.40;99.90;;;;;;5108623;27;20570;-58
2021/01/10 01:45:53;;;;;;;33.03;14.63;;;3.40;99.90;;;;;;5111634;27;20448;-57
2021/01/10 01:48:19;;;;;;;33.17;14.60;;;3.80;99.90;;;;;;5107868;28;20461;-57
2021/01/10 01:50:44;;;;;;;30.50;13.77;;;3.30;99.90;;;;;;5109308;28;20458;-58
2021/01/10 01:53:10;;;;;;;29.30;13.87;;;3.30;99.90;;;;;;5110208;28;20919;-57
2021/01/10 01:55:37;;;;;;;29.87;15.23;;;3.40;99.90;;;;;;5108056;27;20199;-57
2021/01/10 01:58:06;;;;;;;29.43;13.17;;;3.30;99.90;;;;;;5108980;27;20204;-56
2021/01/10 02:00:32;;;;;;;34.43;15.03;;;5.80;99.90;;;;;;5110380;27;20446;-57
2021/01/10 02:02:58;;;;;;;30.50;13.40;;;3.50;99.90;;;;;;5109767;28;20491;-56
2021/01/10 02:05:27;;;;;;;32.53;14.43;;;3.30;99.90;;;;;;5106603;28;20439;-56
2021/01/10 02:08:00;;;;;;;27.67;13.10;;;3.30;99.90;;;;;;5110706;28;20182;-57
2021/01/10 02:10:31;;;;;;;26.63;12.10;;;3.40;99.90;;;;;;5110670;28;20962;-57
2021/01/10 02:13:02;;;;;;;34.27;13.90;;;3.40;99.90;;;;;;5110681;28;20454;-57
2021/01/10 02:15:32;;;;;;;28.47;13.40;;;3.40;99.90;;;;;;5110777;28;20440;-57
2021/01/10 02:18:00;;;;;;;27.07;13.20;;;3.40;99.90;;;;;;5105306;28;20453;-57
2021/01/10 02:20:34;;;;;;;24.00;11.93;;;3.30;99.90;;;;;;5111075;28;20936;-59
2021/01/10 02:23:19;;;;;;;28.07;12.87;;;3.40;99.90;;;;;;5108574;28;20473;-58
2021/01/10 02:25:47;;;;;;;25.13;12.87;;;3.50;99.90;;;;;;5110035;28;20477;-58
2021/01/10 02:28:20;;;;;;;25.53;12.20;;;3.50;99.90;;;;;;5108355;28;20455;-57
2021/01/10 02:30:47;;;;;;;22.80;10.83;;;3.50;99.90;;;;;;5110130;28;20473;-57
2021/01/10 02:33:26;;;;;;;32.17;14.27;;;3.40;99.90;;;;;;5110696;28;20454;-57
2021/01/10 02:35:53;;;;;;;25.17;12.20;;;3.50;99.90;;;;;;5110807;28;20625;-57
2021/01/10 02:38:41;;;;;;;22.20;11.40;;;3.40;99.90;;;;;;5110705;28;20526;-57
2021/01/10 02:41:33;;;;;;;29.43;12.33;;;3.40;99.90;;;;;;5109187;28;20475;-57
2021/01/10 02:44:24;;;;;;;27.07;12.17;;;3.50;99.90;;;;;;5109412;28;20563;-57
2021/01/10 02:46:53;;;;;;;25.23;12.80;;;3.50;99.90;;;;;;5109683;28;20433;-57
2021/01/10 02:49:20;;;;;;;25.93;11.77;;;3.40;99.90;;;;;;5106638;28;20467;-57
2021/01/10 02:51:47;;;;;;;26.83;12.80;;;3.40;99.90;;;;;;5110237;28;20508;-57
2021/01/10 02:54:13;;;;;;;30.00;12.70;;;3.50;99.90;;;;;;5109204;28;20437;-56
2021/01/10 02:56:54;;;;;;;26.67;13.00;;;3.60;99.90;;;;;;5107206;28;20941;-57
2021/01/10 02:59:24;;;;;;;28.00;13.80;;;3.50;99.90;;;;;;5106350;28;20467;-57
2021/01/10 03:01:51;;;;;;;27.43;13.27;;;3.50;99.90;;;;;;5110361;28;20443;-57
2021/01/10 03:04:17;;;;;;;25.27;10.57;;;3.40;99.90;;;;;;5113741;27;20468;-57
2021/01/10 03:06:44;;;;;;;26.03;12.30;;;3.40;99.90;;;;;;5111627;28;20485;-57
2021/01/10 03:09:12;;;;;;;24.43;11.63;;;3.60;99.90;;;;;;5107495;28;20473;-56
2021/01/10 03:11:39;;;;;;;27.70;13.07;;;3.60;99.90;;;;;;5110955;27;20437;-57
2021/01/10 03:14:05;;;;;;;24.27;13.00;;;3.60;99.90;;;;;;5114621;28;20435;-57
2021/01/10 03:16:31;;;;;;;29.53;12.57;;;3.80;99.90;;;;;;5113519;28;20988;-57
2021/01/10 03:18:57;;;;;;;23.70;11.60;;;3.70;99.90;;;;;;5113918;27;20188;-57
2021/01/10 03:21:22;;;;;;;27.70;13.00;;;3.60;99.90;;;;;;5114449;28;20439;-58
2021/01/10 03:23:48;;;;;;;24.50;12.03;;;3.60;99.90;;;;;;5114431;28;20704;-57
2021/01/10 03:26:14;;;;;;;25.00;12.00;;;3.70;99.90;;;;;;5110862;28;20186;-57
2021/01/10 03:28:40;;;;;;;26.77;15.47;;;3.60;99.90;;;;;;5113015;28;20258;-56
2021/01/10 03:31:06;;;;;;;29.03;13.70;;;3.70;99.90;;;;;;5114108;28;21139;-58
2021/01/10 03:33:31;;;;;;;24.80;12.10;;;3.60;99.90;;;;;;5114291;28;20201;-57
2021/01/10 03:35:57;;;;;;;31.07;12.53;;;3.40;99.90;;;;;;5114089;28;20698;-57
2021/01/10 03:38:23;;;;;;;21.63;11.63;;;3.50;99.90;;;;;;5109245;27;20186;-57
2021/01/10 03:40:48;;;;;;;23.40;11.20;;;3.50;99.90;;;;;;5111760;28;20674;-58
2021/01/10 03:43:14;;;;;;;24.53;11.73;;;3.50;99.90;;;;;;5108274;28;20211;-57
2021/01/10 03:45:40;;;;;;;21.77;11.27;;;3.50;99.90;;;;;;5108001;27;20183;-57
2021/01/10 03:48:06;;;;;;;23.20;12.43;;;3.50;99.90;;;;;;5111180;28;20531;-57
2021/01/10 03:50:31;;;;;;;25.07;10.07;;;3.50;99.90;;;;;;5111304;27;20204;-58
2021/01/10 03:52:57;;;;;;;22.97;11.53;;;3.40;99.90;;;;;;5112261;28;20440;-57
2021/01/10 03:55:22;;;;;;;25.87;11.37;;;3.30;99.90;;;;;;5112181;28;20192;-57
2021/01/10 03:57:48;;;;;;;25.70;12.07;;;3.40;99.90;;;;;;5113593;28;20488;-57
2021/01/10 04:00:14;;;;;;;27.50;12.90;;;3.50;99.90;;;;;;5111589;27;20184;-56
2021/01/10 04:02:39;;;;;;;28.03;12.50;;;3.40;99.90;;;;;;5114140;27;20208;-57
2021/01/10 04:05:06;;;;;;;20.40;10.93;;;3.30;99.90;;;;;;5113656;28;20520;-56
2021/01/10 04:07:31;;;;;;;23.20;11.53;;;3.30;99.90;;;;;;5112494;27;20655;-57
2021/01/10 04:09:58;;;;;;;26.77;12.50;;;3.30;99.90;;;;;;5111996;28;20434;-57
2021/01/10 04:12:24;;;;;;;25.07;12.00;;;3.40;99.90;;;;;;5112974;27;20185;-57
2021/01/10 04:14:55;;;;;;;30.77;12.43;;;3.40;99.90;;;;;;5112840;28;20583;-57
2021/01/10 04:17:25;;;;;;;26.90;13.03;;;3.40;99.90;;;;;;5110459;27;20200;-57
2021/01/10 04:19:52;;;;;;;23.97;12.53;;;3.40;99.90;;;;;;5113220;28;20440;-57
2021/01/10 04:22:17;;;;;;;24.23;12.27;;;3.40;99.90;;;;;;5112279;28;20592;-57
2021/01/10 04:24:43;;;;;;;25.00;12.10;;;3.40;99.90;;;;;;5122110;27;20866;-58
2021/01/10 04:27:08;;;;;;;25.17;12.90;;;3.40;99.90;;;;;;5112134;27;20339;-57
2021/01/10 04:29:34;;;;;;;22.33;11.83;;;3.40;99.90;;;;;;5112576;28;20334;-57
2021/01/10 04:31:59;;;;;;;24.73;12.17;;;3.30;99.90;;;;;;5110142;27;20653;-57
2021/01/10 04:34:25;;;;;;;24.00;12.80;;;3.40;99.90;;;;;;5112380;28;20194;-57
2021/01/10 04:36:50;;;;;;;27.03;12.70;;;3.30;99.90;;;;;;5111649;28;20184;-59
2021/01/10 04:39:16;;;;;;;26.67;11.87;;;3.40;99.90;;;;;;5112103;28;20192;-57
2021/01/10 04:41:43;;;;;;;27.17;11.57;;;3.40;99.90;;;;;;5113015;28;20592;-57
2021/01/10 04:44:11;;;;;;;29.70;12.53;;;3.30;99.90;;;;;;5111375;28;20241;-57
2021/01/10 04:46:38;;;;;;;26.70;11.10;;;3.30;99.90;;;;;;5112665;28;20446;-57
2021/01/10 04:49:04;;;;;;;24.17;11.80;;;3.30;99.90;;;;;;5111998;28;20491;-57
2021/01/10 04:51:31;;;;;;;28.30;12.03;;;3.30;99.90;;;;;;5112541;28;20524;-57
2021/01/10 04:54:01;;;;;;;27.93;12.73;;;1.10;99.90;;;;;;5110136;28;20961;-57
2021/01/10 04:56:29;;;;;;;28.87;11.70;;;3.40;99.90;;;;;;5105603;27;20462;-56
2021/01/10 04:58:59;;;;;;;26.30;12.80;;;3.50;99.90;;;;;;5104409;28;20617;-57
2021/01/10 05:01:29;;;;;;;27.87;11.33;;;3.40;99.90;;;;;;5112690;28;20812;-58
2021/01/10 05:03:55;;;;;;;26.60;12.20;;;3.30;99.90;;;;;;5112269;27;20467;-57
2021/01/10 05:06:22;;;;;;;24.30;12.23;;;3.40;99.90;;;;;;5111729;28;21008;-57
2021/01/10 05:08:48;;;;;;;27.63;11.87;;;3.40;99.90;;;;;;5108427;27;20167;-56
2021/01/10 05:11:17;;;;;;;25.30;13.47;;;3.40;99.90;;;;;;5107743;28;20505;-56
2021/01/10 05:13:44;;;;;;;18.90;10.90;;;3.50;99.90;;;;;;5110038;28;20806;-57
2021/01/10 05:16:16;;;;;;;26.73;12.50;;;3.50;99.90;;;;;;5110756;28;20440;-58
2021/01/10 05:18:52;;;;;;;24.07;12.50;;;3.40;99.90;;;;;;5111604;27;20528;-57
2021/01/10 05:21:20;;;;;;;24.40;11.30;;;3.40;99.90;;;;;;5111755;28;20439;-56
2021/01/10 05:23:55;;;;;;;21.40;12.00;;;3.30;99.90;;;;;;5111534;28;20466;-57
2021/01/10 05:26:23;;;;;;;21.57;11.90;;;3.30;99.90;;;;;;5106804;28;20762;-56
2021/01/10 05:28:50;;;;;;;25.73;12.30;;;3.30;99.90;;;;;;5109193;28;20446;-57
2021/01/10 05:31:42;;;;;;;24.73;12.30;;;3.30;99.90;;;;;;5109210;28;20471;-57
2021/01/10 05:34:15;;;;;;;23.40;11.23;;;3.30;99.90;;;;;;5109202;28;20440;-57
2021/01/10 05:36:42;;;;;;;23.07;10.90;;;3.30;99.90;;;;;;5107970;28;20445;-57
2021/01/10 05:39:25;;;;;;;27.20;11.33;;;3.20;99.90;;;;;;5110493;27;21049;-56
2021/01/10 05:41:56;;;;;;;24.40;12.10;;;3.10;99.90;;;;;;5108018;28;20442;-56
2021/01/10 05:44:24;;;;;;;22.37;12.57;;;3.20;99.90;;;;;;5111466;28;20471;-56
2021/01/10 05:47:01;;;;;;;22.57;12.63;;;1.30;99.90;;;;;;5110622;27;20490;-56
2021/01/10 05:49:27;;;;;;;29.63;12.57;;;3.30;99.90;;;;;;5110250;27;20634;-56
2021/01/10 05:51:53;;;;;;;21.40;11.50;;;3.30;99.90;;;;;;5109588;28;20663;-56
2021/01/10 05:54:38;;;;;;;26.50;13.30;;;3.40;99.90;;;;;;5101710;28;20458;-58
2021/01/10 05:57:08;;;;;;;22.47;12.10;;;3.40;99.90;;;;;;5107817;28;20466;-58
2021/01/10 05:59:47;;;;;;;25.93;13.20;;;3.40;99.90;;;;;;5107943;27;20984;-57
2021/01/10 06:02:13;;;;;;;21.27;12.43;;;3.40;99.90;;;;;;5111016;28;20436;-57
2021/01/10 06:04:39;;;;;;;27.80;13.40;;;3.50;99.90;;;;;;5110850;28;20430;-57
2021/01/10 06:07:05;;;;;;;23.43;11.47;;;3.40;99.90;;;;;;5106020;28;20194;-58
2021/01/10 06:09:51;;;;;;;23.80;12.30;;;3.40;99.90;;;;;;5109054;27;20520;-57
2021/01/10 06:12:23;;;;;;;26.73;12.87;;;3.30;99.90;;;;;;5110255;28;20205;-57
2021/01/10 06:14:51;;;;;;;27.73;12.40;;;3.30;99.90;;;;;;5109054;28;20441;-58
2021/01/10 06:17:17;;;;;;;32.90;14.20;;;3.30;99.90;;;;;;5108712;27;20520;-56
2021/01/10 06:19:45;;;;;;;27.63;13.93;;;3.30;99.90;;;;;;5108544;28;20481;-56
2021/01/10 06:22:17;;;;;;;27.93;13.57;;;3.30;99.90;;;;;;5107519;27;20442;-57
2021/01/10 06:24:47;;;;;;;26.43;11.67;;;3.30;99.90;;;;;;5107758;28;20437;-57
2021/01/10 06:27:22;;;;;;;25.43;12.80;;;3.30;99.90;;;;;;5108387;27;20446;-57
2021/01/10 06:29:59;;;;;;;25.90;13.33;;;3.30;99.90;;;;;;5105690;28;20510;-58
2021/01/10 06:32:25;;;;;;;26.97;12.27;;;3.30;99.90;;;;;;5108405;28;20432;-56
2021/01/10 06:34:51;;;;;;;30.67;14.20;;;3.40;99.90;;;;;;5109280;28;20444;-57
2021/01/10 06:37:18;;;;;;;28.90;13.70;;;3.40;99.90;;;;;;5104461;27;20466;-56
2021/01/10 06:39:48;;;;;;;32.87;16.33;;;3.50;99.90;;;;;;5105101;27;20940;-56
2021/01/10 06:42:15;;;;;;;27.07;13.77;;;3.60;99.90;;;;;;5108548;28;20920;-57
2021/01/10 06:44:51;;;;;;;26.53;13.13;;;3.70;99.90;;;;;;5104623;27;20453;-57
2021/01/10 06:47:19;;;;;;;22.60;11.77;;;3.60;99.90;;;;;;5106121;28;20766;-57
2021/01/10 06:49:45;;;;;;;27.40;12.63;;;3.60;99.90;;;;;;5107745;28;20532;-57
2021/01/10 06:52:11;;;;;;;27.23;13.33;;;3.60;99.90;;;;;;5113382;27;20552;-56
2021/01/10 06:54:41;;;;;;;29.33;13.50;;;3.60;99.90;;;;;;5108121;28;20524;-57
2021/01/10 06:57:07;;;;;;;25.23;12.20;;;3.60;99.90;;;;;;5107947;28;20540;-57
2021/01/10 06:59:56;;;;;;;26.00;12.60;;;3.50;99.90;;;;;;5105931;28;20524;-57
2021/01/10 07:02:23;;;;;;;28.90;13.10;;;3.50;99.90;;;;;;5106908;28;20446;-57
2021/01/10 07:04:54;;;;;;;22.53;11.70;;;3.60;99.90;;;;;;5108065;28;20789;-56
2021/01/10 07:07:39;;;;;;;23.03;11.67;;;3.70;99.90;;;;;;5107342;28;20497;-57
2021/01/10 07:10:08;;;;;;;28.27;13.00;;;3.80;99.90;;;;;;5108229;28;20434;-56
2021/01/10 07:12:34;;;;;;;31.00;15.00;;;3.70;99.90;;;;;;5106962;28;20524;-57
2021/01/10 07:15:29;;;;;;;29.97;13.80;;;5.90;99.90;;;;;;5106834;28;20579;-57
2021/01/10 07:18:01;;;;;;;25.87;12.40;;;3.80;99.90;;;;;;5085997;28;20856;-56
2021/01/10 07:20:42;;;;;;;23.63;12.70;;;3.70;99.90;;;;;;5108947;28;20543;-57
2021/01/10 07:23:27;;;;;;;23.40;12.10;;;3.60;99.90;;;;;;5109184;28;20545;-57
2021/01/10 07:25:53;;;;;;;23.60;13.70;;;3.60;99.90;;;;;;5105753;28;20437;-57
2021/01/10 07:28:37;;;;;;;23.07;11.93;;;3.60;99.90;;;;;;5109095;28;20567;-57
2021/01/10 07:31:10;;;;;;;23.83;14.03;;;3.50;99.90;;;;;;5107515;28;20746;-58
2021/01/10 07:33:35;;;;;;;23.37;12.17;;;3.50;99.90;;;;;;5108412;28;20964;-59
2021/01/10 07:36:01;;;;;;;23.63;12.13;;;3.50;99.90;;;;;;5108000;28;20487;-57
2021/01/10 07:38:27;;;;;;;26.50;11.73;;;3.60;99.90;;;;;;5108594;28;20177;-58
2021/01/10 07:40:54;;;;;;;26.80;12.20;;;3.60;99.90;;;;;;5108788;28;20444;-57
2021/01/10 07:43:19;;;;;;;25.07;11.87;;;3.70;99.90;;;;;;5108752;28;20494;-57
2021/01/10 07:45:45;;;;;;;22.33;12.00;;;3.70;99.90;;;;;;5104271;28;20439;-58
2021/01/10 07:48:31;;;;;;;23.07;11.77;;;3.80;99.90;;;;;;5109385;28;20532;-57
2021/01/10 07:51:16;;;;;;;23.43;12.60;;;3.70;99.90;;;;;;5111622;28;20177;-57
2021/01/10 07:53:48;;;;;;;20.77;11.27;;;3.70;99.90;;;;;;5109564;28;20449;-57
2021/01/10 07:56:15;;;;;;;25.67;13.97;;;3.70;99.90;;;;;;5110801;28;20541;-58
2021/01/10 07:58:41;;;;;;;25.93;12.93;;;3.90;99.90;;;;;;5112747;28;20439;-57
2021/01/10 08:01:06;;;;;;;25.57;12.17;;;3.90;99.90;;;;;;5110491;28;20846;-57
2021/01/10 08:03:32;;;;;;;28.30;13.90;;;3.90;99.90;;;;;;5110680;28;20203;-57
2021/01/10 08:06:07;;;;;;;20.47;11.60;;;3.80;99.90;;;;;;5111717;28;20176;-57
2021/01/10 08:08:45;;;;;;;23.43;12.87;;;3.80;99.90;;;;;;5111831;28;20317;-58
2021/01/10 08:11:11;;;;;;;26.00;13.53;;;3.60;99.90;;;;;;5111727;28;20443;-57
2021/01/10 08:13:45;;;;;;;20.63;11.27;;;3.70;99.90;;;;;;5113093;28;20785;-58
2021/01/10 08:16:12;;;;;;;22.53;11.43;;;3.80;99.90;;;;;;5112666;28;20445;-58
2021/01/10 08:18:40;;;;;;;20.50;10.50;;;3.80;99.90;;;;;;5110268;28;20503;-57
2021/01/10 08:21:08;;;;;;;18.33;10.47;;;3.60;99.90;;;;;;5109164;28;20459;-58
2021/01/10 08:23:34;;;;;;;19.20;12.00;;;3.60;99.90;;;;;;5109633;27;20459;-57
2021/01/10 08:26:05;;;;;;;21.70;11.63;;;3.60;99.90;;;;;;5110830;28;20434;-56
2021/01/10 08:28:34;;;;;;;26.27;12.80;;;3.60;99.90;;;;;;5110228;28;20465;-56
2021/01/10 08:31:02;;;;;;;25.17;12.73;;;3.60;99.90;;;;;;5120051;27;20512;-56
2021/01/10 08:33:28;;;;;;;19.13;10.63;;;;;;;;;;5113048;27;20496;-57
2021/01/10 08:36:06;;;;;;;21.83;11.23;;;3.50;99.90;;;;;;5111957;28;20993;-58
2021/01/10 08:38:32;;;;;;;21.03;11.90;;;3.50;99.90;;;;;;5112276;28;20462;-56
2021/01/10 08:40:58;;;;;;;23.50;12.33;;;3.50;99.90;;;;;;5112164;28;20441;-58
2021/01/10 08:43:23;;;;;;;20.10;11.87;;;5.60;99.90;;;;;;5111681;28;20199;-56
2021/01/10 08:45:49;;;;;;;23.00;12.87;;;3.40;99.90;;;;;;5111101;28;20211;-57
2021/01/10 08:48:17;;;;;;;21.93;12.03;;;3.40;99.90;;;;;;5112584;28;20795;-56
2021/01/10 08:50:43;;;;;;;27.17;12.20;;;3.40;99.90;;;;;;5111811;28;20178;-57
2021/01/10 08:53:09;;;;;;;27.57;13.00;;;3.40;99.90;;;;;;5112397;28;20439;-56
2021/01/10 08:55:39;;;;;;;22.77;12.53;;;3.50;99.90;;;;;;5111804;28;20470;-57
2021/01/10 08:58:10;;;;;;;25.03;11.63;;;3.50;99.90;;;;;;5112353;27;20178;-56
2021/01/10 09:00:40;;;;;;;23.37;12.10;;;3.40;99.90;;;;;;5110022;27;20808;-56
2021/01/10 09:03:16;;;;;;;20.63;12.70;;;3.60;99.90;;;;;;5109971;28;20465;-55
2021/01/10 09:05:42;;;;;;;23.53;12.10;;;3.40;99.90;;;;;;5115669;27;20432;-55
2021/01/10 09:08:21;;;;;;;25.37;11.63;;;3.50;99.90;;;;;;5118960;27;20473;-55
2021/01/10 09:10:57;;;;;;;24.43;13.03;;;3.50;99.90;;;;;;5111352;28;20448;-55
2021/01/10 09:13:26;;;;;;;21.03;11.87;;;3.50;99.90;;;;;;5115721;27;20519;-55
2021/01/10 09:15:54;;;;;;;25.13;12.53;;;3.50;99.90;;;;;;5113864;27;20437;-56
2021/01/10 09:18:21;;;;;;;23.80;13.27;;;3.60;99.90;;;;;;5110876;27;20814;-55
2021/01/10 09:20:52;;;;;;;25.17;15.10;;;3.70;99.90;;;;;;5113420;27;20439;-55
2021/01/10 09:23:19;;;;;;;27.50;13.00;;;3.90;99.90;;;;;;5116243;27;20463;-56
2021/01/10 09:25:45;;;;;;;21.50;12.30;;;4.00;99.90;;;;;;5113610;27;20804;-55
2021/01/10 09:28:12;;;;;;;20.33;10.80;;;3.90;99.90;;;;;;5113711;27;20429;-55
2021/01/10 09:30:43;;;;;;;17.63;10.30;;;4.00;99.90;;;;;;5110667;28;20989;-57
2021/01/10 09:33:10;;;;;;;19.30;11.90;;;4.00;99.90;;;;;;5122101;27;20505;-55
2021/01/10 09:35:44;;;;;;;24.67;13.67;;;4.00;99.90;;;;;;5114256;27;20444;-56
2021/01/10 09:38:14;;;;;;;23.17;12.80;;;4.10;99.90;;;;;;5115737;27;20442;-57
2021/01/10 09:41:06;;;;;;;21.23;12.40;;;4.10;99.90;;;;;;5117534;27;20492;-55
2021/01/10 09:43:41;;;;;;;26.10;12.80;;;4.00;99.90;;;;;;5111909;28;20467;-56
2021/01/10 09:46:25;;;;;;;20.87;11.73;;;4.00;99.90;;;;;;5111777;27;20433;-56
2021/01/10 09:48:52;;;;;;;22.87;12.27;;;3.90;99.90;;;;;;5115857;27;20435;-55
2021/01/10 09:51:18;;;;;;;19.80;12.43;;;4.00;99.90;;;;;;5121342;27;20435;-56
2021/01/10 09:53:47;;;;;;;22.00;12.50;;;4.00;99.90;;;;;;5115790;27;20466;-57
2021/01/10 09:56:38;;;;;;;23.97;12.23;;;4.00;99.90;;;;;;5121136;27;20443;-54
2021/01/10 09:59:22;;;;;;;20.43;11.17;;;4.00;99.90;;;;;;5117311;27;20453;-56
2021/01/10 10:01:48;;;;;;;19.80;12.00;;;4.10;99.90;;;;;;5116513;27;20553;-55
2021/01/10 10:04:27;;;;;;;21.37;12.00;;;4.10;99.90;;;;;;5118769;27;20546;-55
2021/01/10 10:06:53;;;;;;;14.70;9.93;;;4.10;99.90;;;;;;5115521;27;20176;-56
2021/01/10 10:09:19;;;;;;;21.97;11.23;;;4.00;99.90;;;;;;5120611;27;21004;-56
2021/01/10 10:11:45;;;;;;;18.70;10.90;;;4.10;99.90;;;;;;5119123;27;20458;-55
2021/01/10 10:14:11;;;;;;;18.50;10.70;;;4.10;99.90;;;;;;5113651;27;20651;-55
2021/01/10 10:16:37;;;;;;;15.40;9.73;;;4.20;99.90;;;;;;5114017;27;20186;-56
2021/01/10 10:19:03;;;;;;;16.80;10.07;;;4.20;99.90;;;;;;5114923;27;20451;-55
2021/01/10 10:21:29;;;;;;;17.73;11.30;;;4.30;99.90;;;;;;5116994;27;20828;-55
2021/01/10 10:23:54;;;;;;;17.97;10.30;;;4.30;99.90;;;;;;5115059;27;20471;-56
2021/01/10 10:26:20;;;;;;;20.13;11.90;;;4.20;99.90;;;;;;5114151;27;20533;-55
2021/01/10 10:28:46;;;;;;;17.73;11.40;;;4.30;99.90;;;;;;5124120;27;20177;-55
2021/01/10 10:31:11;;;;;;;20.00;11.67;;;4.50;99.90;;;;;;5111690;28;20227;-56
2021/01/10 10:33:38;;;;;;;19.37;11.63;;;4.50;99.90;;;;;;5119811;27;20254;-55
2021/01/10 10:36:05;;;;;;;20.53;11.40;;;4.50;99.90;;;;;;5112040;27;20203;-55
2021/01/10 10:38:31;;;;;;;20.10;11.93;;;4.60;99.90;;;;;;5112999;27;20419;-56
2021/01/10 10:40:57;;;;;;;24.23;13.13;;;4.40;94.10;;;;;;5108999;28;20794;-56
2021/01/10 10:43:23;;;;;;;20.27;10.83;;;4.60;98.70;;;;;;5117654;27;20531;-57
2021/01/10 10:45:49;;;;;;;19.97;12.03;;;4.60;87.30;;;;;;5109876;27;20439;-56
2021/01/10 10:48:15;;;;;;;20.00;12.20;;;;;;;;;;5112525;27;20462;-55
2021/01/10 10:50:41;;;;;;;21.10;11.27;;;4.60;86.70;;;;;;5120901;27;20182;-56
2021/01/10 10:53:08;;;;;;;18.97;12.07;;;4.70;93.00;;;;;;5118888;27;20435;-57
2021/01/10 10:55:34;;;;;;;19.30;11.70;;;4.80;83.70;;;;;;5120167;27;20182;-56
2021/01/10 10:58:00;;;;;;;17.77;11.27;;;4.90;52.60;;;;;;5113263;27;20443;-56
2021/01/10 11:00:25;;;;;;;20.13;12.60;;;5.10;42.90;;;;;;5114169;27;20457;-56
2021/01/10 11:02:51;;;;;;;22.13;12.53;;;5.10;28.40;;;;;;5110423;28;20543;-56
2021/01/10 11:05:17;;;;;;;17.80;11.50;;;5.10;5.90;;;;;;5112695;28;20467;-56
2021/01/10 11:07:43;;;;;;;24.50;11.33;;;4.90;6.50;;;;;;5109720;28;20210;-55
2021/01/10 11:10:09;;;;;;;18.83;11.67;;;4.80;9.80;;;;;;5109943;28;20455;-57
2021/01/10 11:12:35;;;;;;;17.37;10.97;;;4.80;12.60;;;;;;5115886;27;20176;-57
2021/01/10 11:15:02;;;;;;;20.67;12.33;;;4.80;8.60;;;;;;5114228;27;20446;-58
2021/01/10 11:17:27;;;;;;;22.70;12.13;;;4.70;9.30;;;;;;5110360;28;20182;-55
2021/01/10 11:19:53;;;;;;;22.23;13.37;;;4.70;14.40;;;;;;5109380;28;20487;-56
2021/01/10 11:22:19;;;;;;;19.90;12.57;;;4.60;14.60;;;;;;5110452;28;20703;-55
2021/01/10 11:24:44;;;;;;;20.80;12.93;;;4.80;18.30;;;;;;5118705;27;20265;-55
2021/01/10 11:27:10;;;;;;;24.60;13.50;;;4.80;13.90;;;;;;5113038;28;20657;-56
2021/01/10 11:29:36;;;;;;;23.53;14.77;;;4.90;14.90;;;;;;5114975;28;20182;-56
2021/01/10 11:32:03;;;;;;;22.47;12.63;;;5.00;13.00;;;;;;5114165;28;20202;-56
2021/01/10 11:34:29;;;;;;;22.80;13.03;;;;;;;;;;5120614;27;20433;-56
2021/01/10 11:36:55;;;;;;;19.90;13.53;;;4.80;7.60;;;;;;5121794;27;20792;-55
2021/01/10 11:39:23;;;;;;;21.50;13.73;;;4.90;3.10;;;;;;5116219;28;20423;-55
2021/01/10 11:41:52;;;;;;;22.80;11.70;;;4.70;1.00;;;;;;5136786;27;20430;-56
2021/01/10 11:44:19;;;;;;;22.60;13.60;;;4.40;7.10;;;;;;5136360;27;20471;-55
2021/01/10 11:46:47;;;;;;;19.00;12.93;;;4.30;12.80;;;;;;5136218;27;20516;-55
2021/01/10 11:49:14;;;;;;;17.27;10.00;;;4.40;18.50;;;;;;5132865;27;20441;-55
2021/01/10 11:51:40;;;;;;;19.70;11.63;;;4.70;3.30;;;;;;5097758;28;20789;-55
2021/01/10 11:54:06;;;;;;;21.23;12.67;;;4.60;1.00;;;;;;5123628;27;20502;-56
2021/01/10 11:56:32;;;;;;;22.90;12.47;;;4.60;1.00;;;;;;5133429;27;20938;-54
2021/01/10 11:58:59;;;;;;;21.67;12.73;;;4.40;1.00;;;;;;5131721;27;20431;-55
2021/01/10 12:01:36;;;;;;;19.70;12.50;;;4.50;2.00;;;;;;5125171;27;20446;-56
2021/01/10 12:04:03;;;;;;;19.23;10.43;;;4.60;1.80;;;;;;5121325;27;20466;-56
2021/01/10 12:06:29;;;;;;;18.43;10.60;;;4.50;1.00;;;;;;5120955;27;20440;-56
2021/01/10 12:08:55;;;;;;;19.10;11.30;;;4.50;1.00;;;;;;5136131;27;20951;-55
2021/01/10 12:11:21;;;;;;;17.17;9.83;;;4.40;1.00;;;;;;5123077;27;20919;-54
2021/01/10 12:13:47;;;;;;;18.50;10.50;;;4.30;1.00;;;;;;5135930;27;20512;-56
2021/01/10 12:16:14;;;;;;;19.07;11.27;;;4.30;1.00;;;;;;5120017;27;20580;-55
2021/01/10 12:18:40;;;;;;;21.33;11.10;;;4.80;1.00;;;;;;5115237;28;20195;-56
2021/01/10 12:21:07;;;;;;;18.77;10.40;;;4.40;1.00;;;;;;5114971;28;20455;-56
2021/01/10 12:23:33;;;;;;;17.63;9.50;;;4.30;1.00;;;;;;5127792;27;20463;-56
2021/01/10 12:25:59;;;;;;;18.27;10.63;;;4.40;1.00;;;;;;5135722;27;20430;-54
2021/01/10 12:28:24;;;;;;;20.33;11.27;;;4.60;1.00;;;;;;5128210;27;20423;-56
2021/01/10 12:30:50;;;;;;;20.17;11.63;;;4.70;1.00;;;;;;5115546;27;20237;-56
2021/01/10 12:33:15;;;;;;;18.93;11.93;;;4.80;1.00;;;;;;5114849;28;20611;-56
2021/01/10 12:35:41;;;;;;;16.50;10.27;;;4.90;1.00;;;;;;5113366;28;20181;-55
2021/01/10 12:38:07;;;;;;;16.80;9.70;;;4.90;1.00;;;;;;5114879;28;20624;-55
2021/01/10 12:40:33;;;;;;;17.07;11.00;;;5.10;1.00;;;;;;5124732;27;20199;-56
2021/01/10 12:42:58;;;;;;;14.10;9.00;;;5.10;1.00;;;;;;5127369;27;20201;-55
2021/01/10 12:45:24;;;;;;;15.10;9.63;;;5.30;1.00;;;;;;5130917;27;20459;-55